createdAt,value
2023-05-24T00:00:18.633Z,4.60
2023-05-24T00:02:46.532Z,4.57
2023-05-24T00:05:16.716Z,4.35
2023-05-24T00:07:46.214Z,4.22
2023-05-24T00:10:14.207Z,3.85
2023-05-24T00:12:42.312Z,4.30
2023-05-24T00:15:10.724Z,4.30
2023-05-24T00:17:41.194Z,4.20
2023-05-24T00:20:12.027Z,3.70
2023-05-24T00:22:40.384Z,3.90
2023-05-24T00:25:10.640Z,4.00
2023-05-24T00:27:39.067Z,4.30
2023-05-24T00:30:08.486Z,4.22
2023-05-24T00:32:36.667Z,3.93
2023-05-24T00:35:04.925Z,4.10
2023-05-24T00:37:32.693Z,4.22
2023-05-24T00:40:00.398Z,3.80
2023-05-24T00:42:29.527Z,4.07
2023-05-24T00:44:57.272Z,4.00
2023-05-24T00:47:25.458Z,3.80
2023-05-24T00:49:53.574Z,3.78
2023-05-24T00:52:22.172Z,3.95
2023-05-24T00:54:50.130Z,3.80
2023-05-24T00:57:18.912Z,3.87
2023-05-24T00:59:48.418Z,4.00
2023-05-24T01:02:17.106Z,3.92
2023-05-24T01:04:45.061Z,3.65
2023-05-24T01:07:22.760Z,3.85
2023-05-24T01:10:05.747Z,3.78
2023-05-24T01:12:43.955Z,3.88
2023-05-24T01:15:23.406Z,3.65
2023-05-24T01:18:01.686Z,3.50
2023-05-24T01:20:33.478Z,3.50
2023-05-24T01:23:31.125Z,4.00
2023-05-24T01:26:14.627Z,3.90
2023-05-24T01:28:44.462Z,3.92
2023-05-24T01:31:13.786Z,3.90
2023-05-24T01:33:42.949Z,4.53
2023-05-24T01:36:11.060Z,4.80
2023-05-24T01:38:40.260Z,4.18
2023-05-24T01:41:22.560Z,4.25
2023-05-24T01:43:57.377Z,4.40
2023-05-24T01:46:36.367Z,4.18
2023-05-24T01:49:12.338Z,3.90
2023-05-24T01:51:45.060Z,4.13
2023-05-24T01:54:15.022Z,4.03
2023-05-24T01:56:45.268Z,3.80
2023-05-24T01:59:16.084Z,4.07
2023-05-24T02:01:44.159Z,3.90
2023-05-24T02:04:12.479Z,4.03
2023-05-24T02:06:40.247Z,4.03
2023-05-24T02:09:08.033Z,3.63
2023-05-24T02:11:35.815Z,3.97
2023-05-24T02:14:03.526Z,3.80
2023-05-24T02:16:33.282Z,3.97
2023-05-24T02:19:01.169Z,3.60
2023-05-24T02:21:29.188Z,3.63
2023-05-24T02:23:57.023Z,3.80
2023-05-24T02:26:24.767Z,3.80
2023-05-24T02:28:52.596Z,3.92
2023-05-24T02:31:21.613Z,3.88
2023-05-24T02:33:51.277Z,3.63
2023-05-24T02:36:19.186Z,3.75
2023-05-24T02:38:46.953Z,3.53
2023-05-24T02:41:18.263Z,3.65
2023-05-24T02:43:46.140Z,3.60
2023-05-24T02:46:14.301Z,3.53
2023-05-24T02:48:42.286Z,3.67
2023-05-24T02:51:11.389Z,3.70
2023-05-24T02:53:39.075Z,3.63
2023-05-24T02:56:07.526Z,3.30
2023-05-24T02:58:40.465Z,3.50
2023-05-24T03:01:08.795Z,3.25
2023-05-24T03:03:36.756Z,3.50
2023-05-24T03:06:04.679Z,3.80
2023-05-24T03:08:33.871Z,3.43
2023-05-24T03:11:01.641Z,3.55
2023-05-24T03:13:29.614Z,3.50
2023-05-24T03:15:57.379Z,3.60
2023-05-24T03:18:25.168Z,3.75
2023-05-24T03:20:53.042Z,3.60
2023-05-24T03:23:20.797Z,3.90
2023-05-24T03:25:49.983Z,3.53
2023-05-24T03:28:17.784Z,3.70
2023-05-24T03:30:45.683Z,3.60
2023-05-24T03:33:13.402Z,3.58
2023-05-24T03:35:41.223Z,3.63
2023-05-24T03:38:08.988Z,3.50
2023-05-24T03:40:37.041Z,3.47
2023-05-24T03:43:06.275Z,3.40
2023-05-24T03:45:39.030Z,3.80
2023-05-24T03:48:07.925Z,4.03
2023-05-24T03:50:35.713Z,3.85
2023-05-24T03:53:03.614Z,3.90
2023-05-24T03:55:31.427Z,3.50
2023-05-24T03:57:59.192Z,3.63
2023-05-24T04:00:28.573Z,3.60
2023-05-24T04:02:56.961Z,3.67
2023-05-24T04:05:27.031Z,3.63
2023-05-24T04:07:55.012Z,3.60
2023-05-24T04:10:22.871Z,3.58
2023-05-24T04:12:50.636Z,3.58
2023-05-24T04:15:18.504Z,3.80
2023-05-24T04:17:48.690Z,3.40
2023-05-24T04:20:16.634Z,3.58
2023-05-24T04:22:44.403Z,3.70
2023-05-24T04:25:12.165Z,3.60
2023-05-24T04:27:40.054Z,3.40
2023-05-24T04:30:09.317Z,3.33
2023-05-24T04:32:37.156Z,3.60
2023-05-24T04:35:07.205Z,3.17
2023-05-24T04:37:34.917Z,3.40
2023-05-24T04:40:04.219Z,3.60
2023-05-24T04:42:32.475Z,3.20
2023-05-24T04:45:00.551Z,3.40
2023-05-24T04:47:28.473Z,3.42
2023-05-24T04:49:56.331Z,3.50
2023-05-24T04:52:25.786Z,3.40
2023-05-24T04:54:55.197Z,3.80
2023-05-24T04:57:22.872Z,3.28
2023-05-24T04:59:50.741Z,3.25
2023-05-24T05:02:18.628Z,3.42
2023-05-24T05:04:46.478Z,3.30
2023-05-24T05:07:14.158Z,3.72
2023-05-24T05:09:43.243Z,3.47
2023-05-24T05:12:12.720Z,3.40
2023-05-24T05:14:40.576Z,3.67
2023-05-24T05:17:08.506Z,3.28
2023-05-24T05:19:36.680Z,3.75
2023-05-24T05:22:04.452Z,3.70
2023-05-24T05:24:32.336Z,3.17
2023-05-24T05:27:01.636Z,3.20
2023-05-24T05:29:29.322Z,3.33
2023-05-24T05:31:57.088Z,3.40
2023-05-24T05:34:24.849Z,3.47
2023-05-24T05:36:52.591Z,3.23
2023-05-24T05:39:20.295Z,3.50
2023-05-24T05:41:48.038Z,3.20
2023-05-24T05:44:17.242Z,3.50
2023-05-24T05:46:46.371Z,3.25
2023-05-24T05:49:15.222Z,3.20
2023-05-24T05:51:43.207Z,3.40
2023-05-24T05:54:15.427Z,3.22
2023-05-24T05:56:47.939Z,3.40
2023-05-24T05:59:17.307Z,3.38
2023-05-24T06:01:47.047Z,3.15
2023-05-24T06:04:14.863Z,3.50
2023-05-24T06:06:44.156Z,3.08
2023-05-24T06:09:12.231Z,3.15
2023-05-24T06:11:44.740Z,3.55
2023-05-24T06:14:13.404Z,3.45
2023-05-24T06:16:43.690Z,3.38
2023-05-24T06:19:11.583Z,3.03
2023-05-24T06:21:41.026Z,3.40
2023-05-24T06:24:09.741Z,3.30
2023-05-24T06:26:38.089Z,3.20
2023-05-24T06:29:06.061Z,3.25
2023-05-24T06:31:34.763Z,3.03
2023-05-24T06:34:06.583Z,3.10
2023-05-24T06:36:35.925Z,3.30
2023-05-24T06:39:03.901Z,3.00
2023-05-24T06:41:31.657Z,3.28
2023-05-24T06:43:59.872Z,2.92
2023-05-24T06:46:27.734Z,3.25
2023-05-24T06:48:55.569Z,3.03
2023-05-24T06:51:24.968Z,2.90
2023-05-24T06:53:53.000Z,2.63
2023-05-24T06:56:21.494Z,2.80
2023-05-24T06:58:49.230Z,2.63
2023-05-24T07:01:17.134Z,2.70
2023-05-24T07:03:45.080Z,2.70
2023-05-24T07:06:14.290Z,2.90
2023-05-24T07:08:44.193Z,2.65
2023-05-24T07:11:12.109Z,2.85
2023-05-24T07:13:39.968Z,2.90
2023-05-24T07:16:07.916Z,2.50
2023-05-24T07:18:35.982Z,2.30
2023-05-24T07:21:04.063Z,2.88
2023-05-24T07:23:32.366Z,2.97
2023-05-24T07:26:01.683Z,3.10
2023-05-24T07:28:29.526Z,2.83
2023-05-24T07:30:57.393Z,3.10
2023-05-24T07:33:25.188Z,2.90
2023-05-24T07:35:53.896Z,2.83
2023-05-24T07:38:22.469Z,2.90
2023-05-24T07:40:50.253Z,3.10
2023-05-24T07:43:19.832Z,2.87
2023-05-24T07:45:47.623Z,3.17
2023-05-24T07:48:15.949Z,2.85
2023-05-24T07:50:48.537Z,3.15
2023-05-24T07:53:19.022Z,3.10
2023-05-24T07:55:46.997Z,2.78
2023-05-24T07:58:14.832Z,2.80
2023-05-24T08:00:44.058Z,2.78
2023-05-24T08:03:14.441Z,2.70
2023-05-24T08:05:43.134Z,2.60
2023-05-24T08:08:11.147Z,3.03
2023-05-24T08:10:39.718Z,2.80
2023-05-24T08:13:07.697Z,2.73
2023-05-24T08:15:35.687Z,2.70
2023-05-24T08:18:05.432Z,2.83
2023-05-24T08:20:36.285Z,2.70
2023-05-24T08:23:04.304Z,2.53
2023-05-24T08:25:32.082Z,2.63
2023-05-24T08:27:59.910Z,2.72
2023-05-24T08:30:28.049Z,2.60
2023-05-24T08:32:55.956Z,2.70
2023-05-24T08:35:25.237Z,2.70
2023-05-24T08:37:52.923Z,2.90
2023-05-24T08:40:20.880Z,2.40
2023-05-24T08:42:50.650Z,2.75
2023-05-24T08:45:19.921Z,2.63
2023-05-24T08:47:48.844Z,2.50
2023-05-24T08:50:16.834Z,2.17
2023-05-24T08:52:47.390Z,2.70
2023-05-24T08:55:16.609Z,2.90
2023-05-24T08:57:46.608Z,2.30
2023-05-24T09:00:15.795Z,2.40
2023-05-24T09:02:46.357Z,2.30
2023-05-24T09:05:17.324Z,2.80
2023-05-24T09:07:47.424Z,2.60
2023-05-24T09:10:16.298Z,2.63
2023-05-24T09:12:46.830Z,2.50
2023-05-24T09:15:14.792Z,2.38
2023-05-24T09:17:43.027Z,2.43
2023-05-24T09:20:12.411Z,2.90
2023-05-24T09:22:42.974Z,2.70
2023-05-24T09:25:15.095Z,2.92
2023-05-24T09:27:45.551Z,2.45
2023-05-24T09:30:16.477Z,2.53
2023-05-24T09:32:56.237Z,2.42
2023-05-24T09:35:24.288Z,2.45
2023-05-24T09:37:55.350Z,2.85
2023-05-24T09:40:25.745Z,2.97
2023-05-24T09:43:04.421Z,2.88
2023-05-24T09:45:34.342Z,3.10
2023-05-24T09:48:05.166Z,2.67
2023-05-24T09:50:33.010Z,2.63
2023-05-24T09:53:01.065Z,2.90
2023-05-24T09:55:31.070Z,3.08
2023-05-24T09:58:04.626Z,3.45
2023-05-24T10:00:36.810Z,2.80
2023-05-24T10:03:07.191Z,3.25
2023-05-24T10:05:36.311Z,2.80
2023-05-24T10:08:06.428Z,3.15
2023-05-24T10:10:35.938Z,3.20
2023-05-24T10:13:03.936Z,3.33
2023-05-24T10:15:31.813Z,3.10
2023-05-24T10:18:00.768Z,3.33
2023-05-24T10:20:28.767Z,3.40
2023-05-24T10:23:02.073Z,3.38
2023-05-24T10:25:30.968Z,3.63
2023-05-24T10:28:04.339Z,3.60
2023-05-24T10:30:37.733Z,3.40
2023-05-24T10:33:09.525Z,3.20
2023-05-24T10:35:38.592Z,3.07
2023-05-24T10:38:07.819Z,2.75
2023-05-24T10:40:37.062Z,3.13
2023-05-24T10:43:07.565Z,3.13
2023-05-24T10:45:38.391Z,3.20
2023-05-24T10:48:11.303Z,3.00
2023-05-24T10:50:39.217Z,3.13
2023-05-24T10:53:14.081Z,3.00
2023-05-24T10:55:58.544Z,3.25
2023-05-24T10:58:47.215Z,3.20
2023-05-24T11:01:15.604Z,3.28
2023-05-24T11:03:43.425Z,3.20
2023-05-24T11:06:11.404Z,3.08
2023-05-24T11:08:43.555Z,3.47
2023-05-24T11:13:49.242Z,3.35
2023-05-24T11:16:35.215Z,3.10
2023-05-24T11:19:13.280Z,3.20
2023-05-24T11:21:42.168Z,3.58
2023-05-24T11:24:10.610Z,2.95
2023-05-24T11:26:40.640Z,3.20
2023-05-24T11:29:10.414Z,3.20
2023-05-24T11:31:43.147Z,3.03
2023-05-24T11:34:12.507Z,2.90
2023-05-24T11:36:41.265Z,2.70
2023-05-24T11:39:09.648Z,2.72
2023-05-24T11:41:39.151Z,2.80
2023-05-24T11:44:10.876Z,2.70
2023-05-24T11:46:40.175Z,2.65
2023-05-24T11:49:08.282Z,2.95
2023-05-24T11:51:37.527Z,2.80
2023-05-24T11:54:05.459Z,2.90
2023-05-24T11:56:34.265Z,2.97
2023-05-24T11:59:15.522Z,2.60
2023-05-24T12:01:44.579Z,2.92
2023-05-24T12:04:13.228Z,2.47
2023-05-24T12:06:44.362Z,2.72
2023-05-24T12:09:14.371Z,2.63
2023-05-24T12:11:43.472Z,2.75
2023-05-24T12:14:17.897Z,3.28
2023-05-24T12:16:46.907Z,2.60
2023-05-24T12:19:31.680Z,2.60
2023-05-24T12:22:02.196Z,2.90
2023-05-24T12:24:30.558Z,2.88
2023-05-24T12:27:03.158Z,2.70
2023-05-24T12:29:36.808Z,2.80
2023-05-24T12:32:05.841Z,3.28
2023-05-24T12:34:33.878Z,2.80
2023-05-24T12:37:02.108Z,2.83
2023-05-24T12:39:34.192Z,2.50
2023-05-24T12:42:03.188Z,2.67
2023-05-24T12:44:32.929Z,2.70
2023-05-24T12:47:04.370Z,2.80
2023-05-24T12:49:32.718Z,2.72
2023-05-24T12:52:01.777Z,2.78
2023-05-24T12:54:30.435Z,2.90
2023-05-24T12:57:00.004Z,2.80
2023-05-24T12:59:29.570Z,2.60
2023-05-24T13:01:57.762Z,2.53
2023-05-24T13:04:27.710Z,2.77
2023-05-24T13:06:55.763Z,3.08
2023-05-24T13:09:25.842Z,2.60
2023-05-24T13:11:54.171Z,2.70
2023-05-24T13:14:22.697Z,2.83
2023-05-24T13:16:50.839Z,2.80
2023-05-24T13:19:18.844Z,2.60
2023-05-24T13:21:48.905Z,2.70
2023-05-24T13:24:17.541Z,3.03
2023-05-24T13:26:46.198Z,2.58
2023-05-24T13:31:45.205Z,2.83
2023-05-24T13:34:13.401Z,2.65
2023-05-24T13:36:42.054Z,2.67
2023-05-24T13:41:42.559Z,2.90
2023-05-24T13:44:10.889Z,2.80
2023-05-24T13:46:39.189Z,3.25
2023-05-24T13:49:07.850Z,4.30
2023-05-24T13:51:36.318Z,4.82
2023-05-24T13:54:04.981Z,3.05
2023-05-24T13:56:34.400Z,3.77
2023-05-24T13:59:03.621Z,3.25
2023-05-24T14:01:32.561Z,2.88
2023-05-24T14:04:02.433Z,2.70
2023-05-24T14:06:30.883Z,2.70
2023-05-24T14:08:59.259Z,2.60
2023-05-24T14:11:27.701Z,2.90
2023-05-24T14:16:27.704Z,2.57
2023-05-24T14:18:55.662Z,2.47
2023-05-24T14:21:23.516Z,2.85
2023-05-24T14:23:51.561Z,2.70
2023-05-24T14:26:20.110Z,2.50
2023-05-24T14:28:48.115Z,2.97
2023-05-24T14:31:17.477Z,2.70
2023-05-24T14:33:45.226Z,2.97
2023-05-24T14:36:12.985Z,3.00
2023-05-24T14:38:41.050Z,2.60
2023-05-24T14:41:10.044Z,2.95
2023-05-24T14:43:37.923Z,2.80
2023-05-24T14:46:06.083Z,3.10
2023-05-24T14:48:35.413Z,3.03
2023-05-24T14:51:03.413Z,3.08
2023-05-24T14:53:31.229Z,3.20
2023-05-24T14:55:59.240Z,3.10
2023-05-24T14:58:27.505Z,3.00
2023-05-24T15:00:55.396Z,3.40
2023-05-24T15:03:23.294Z,3.47
2023-05-24T15:05:53.242Z,3.42
2023-05-24T15:08:21.279Z,3.45
2023-05-24T15:10:49.360Z,3.35
2023-05-24T15:13:17.893Z,3.55
2023-05-24T15:15:45.881Z,3.28
2023-05-24T15:18:13.831Z,3.35
2023-05-24T15:20:42.021Z,3.60
2023-05-24T15:23:11.772Z,3.20
2023-05-24T15:25:39.634Z,3.10
2023-05-24T15:28:07.446Z,3.35
2023-05-24T15:30:35.196Z,3.33
2023-05-24T15:33:02.962Z,3.55
2023-05-24T15:35:31.316Z,3.25
2023-05-24T15:37:59.510Z,3.65
2023-05-24T15:40:28.796Z,3.30
2023-05-24T15:42:56.519Z,3.40
2023-05-24T15:45:24.189Z,3.50
2023-05-24T15:47:52.052Z,3.85
2023-05-24T15:50:28.463Z,4.18
2023-05-24T15:53:03.999Z,3.70
2023-05-24T15:55:33.914Z,3.67
2023-05-24T15:58:02.198Z,3.55
2023-05-24T16:00:30.467Z,3.92
2023-05-24T16:02:59.285Z,3.35
2023-05-24T16:05:28.359Z,3.72
2023-05-24T16:07:56.031Z,3.70
2023-05-24T16:10:23.869Z,3.47
2023-05-24T16:12:53.850Z,3.60
2023-05-24T16:15:21.830Z,3.80
2023-05-24T16:17:51.451Z,3.60
2023-05-24T16:20:19.329Z,3.50
2023-05-24T16:22:50.181Z,3.63
2023-05-24T16:25:17.923Z,3.40
2023-05-24T16:27:45.691Z,3.60
2023-05-24T16:30:15.276Z,3.80
2023-05-24T16:32:45.205Z,3.80
2023-05-24T16:35:13.325Z,3.92
2023-05-24T16:37:41.448Z,4.47
2023-05-24T16:40:09.901Z,5.10
2023-05-24T16:42:37.698Z,3.95
2023-05-24T16:45:06.401Z,3.92
2023-05-24T16:47:35.969Z,4.95
2023-05-24T16:50:04.153Z,4.20
2023-05-24T16:52:31.918Z,3.78
2023-05-24T16:55:00.479Z,3.90
2023-05-24T16:57:28.464Z,3.95
2023-05-24T16:59:58.248Z,3.75
2023-05-24T17:02:26.713Z,4.10
2023-05-24T17:04:56.450Z,4.10
2023-05-24T17:07:24.810Z,3.80
2023-05-24T17:09:52.999Z,3.40
2023-05-24T17:12:22.104Z,4.00
2023-05-24T17:14:50.066Z,3.92
2023-05-24T17:17:17.991Z,4.22
2023-05-24T17:19:45.878Z,4.10
2023-05-24T17:22:15.235Z,4.10
2023-05-24T17:24:43.198Z,4.20
2023-05-24T17:27:11.124Z,4.20
2023-05-24T17:29:44.637Z,3.58
2023-05-24T17:32:12.519Z,3.83
2023-05-24T17:34:40.431Z,3.70
2023-05-24T17:37:08.297Z,3.67
2023-05-24T17:39:40.055Z,4.30
2023-05-24T17:42:07.981Z,3.70
2023-05-24T17:44:36.123Z,3.85
2023-05-24T17:47:04.434Z,3.60
2023-05-24T17:49:33.063Z,3.60
2023-05-24T17:52:01.463Z,3.63
2023-05-24T17:54:29.361Z,3.72
2023-05-24T17:56:58.672Z,3.38
2023-05-24T17:59:26.670Z,3.75
2023-05-24T18:01:54.496Z,3.63
2023-05-24T18:04:22.640Z,3.47
2023-05-24T18:06:50.451Z,3.33
2023-05-24T18:09:18.691Z,3.55
2023-05-24T18:11:46.584Z,3.60
2023-05-24T18:14:16.062Z,3.70
2023-05-24T18:16:44.131Z,3.72
2023-05-24T18:19:12.120Z,3.47
2023-05-24T18:21:40.212Z,3.65
2023-05-24T18:24:08.840Z,3.13
2023-05-24T18:26:37.312Z,3.30
2023-05-24T18:29:06.275Z,3.45
2023-05-24T18:31:36.523Z,3.03
2023-05-24T18:34:06.413Z,3.20
2023-05-24T18:36:34.464Z,3.70
2023-05-24T18:39:03.205Z,3.58
2023-05-24T18:41:31.232Z,6.03
2023-05-24T18:43:59.116Z,3.67
2023-05-24T18:46:28.848Z,3.67
2023-05-24T18:49:00.297Z,3.47
2023-05-24T18:51:28.177Z,3.40
2023-05-24T18:53:56.846Z,3.35
2023-05-24T18:56:24.790Z,3.30
2023-05-24T18:58:53.902Z,3.90
2023-05-24T19:01:21.917Z,3.47
2023-05-24T19:03:50.428Z,3.40
2023-05-24T19:06:19.679Z,3.92
2023-05-24T19:08:49.947Z,3.50
2023-05-24T19:11:17.777Z,3.50
2023-05-24T19:13:45.835Z,3.47
2023-05-24T19:16:17.655Z,3.50
2023-05-24T19:18:46.234Z,6.03
2023-05-24T19:21:14.093Z,4.38
2023-05-24T19:23:43.714Z,5.50
2023-05-24T19:26:11.894Z,3.80
2023-05-24T19:28:41.892Z,6.57
2023-05-24T19:31:10.092Z,3.50
2023-05-24T19:33:48.412Z,3.08
2023-05-24T19:36:21.208Z,3.28
2023-05-24T19:38:50.752Z,3.28
2023-05-24T19:41:18.889Z,3.60
2023-05-24T19:43:46.978Z,3.38
2023-05-24T19:46:14.996Z,3.20
2023-05-24T19:48:44.103Z,3.20
2023-05-24T19:51:13.259Z,3.20
2023-05-24T19:53:41.224Z,3.53
2023-05-24T19:56:10.841Z,3.20
2023-05-24T19:58:38.961Z,3.13
2023-05-24T20:01:07.091Z,3.20
2023-05-24T20:03:35.345Z,3.07
2023-05-24T20:06:03.505Z,3.03
2023-05-24T20:08:31.358Z,2.87
2023-05-24T20:10:59.282Z,2.80
2023-05-24T20:13:28.776Z,3.03
2023-05-24T20:15:56.763Z,3.30
2023-05-24T20:18:24.731Z,3.25
2023-05-24T20:20:52.941Z,3.22
2023-05-24T20:23:20.833Z,2.80
2023-05-24T20:25:48.683Z,3.70
2023-05-24T20:28:29.424Z,4.38
2023-05-24T20:30:59.773Z,4.00
2023-05-24T20:33:27.747Z,3.37
2023-05-24T20:35:55.666Z,3.10
2023-05-24T20:38:24.425Z,4.60
2023-05-24T20:40:52.406Z,5.10
2023-05-24T20:43:20.186Z,5.32
2023-05-24T20:45:48.102Z,4.90
2023-05-24T20:48:17.594Z,4.43
2023-05-24T20:50:45.462Z,3.90
2023-05-24T20:53:13.329Z,3.70
2023-05-24T20:55:41.686Z,4.05
2023-05-24T20:58:09.942Z,3.40
2023-05-24T21:00:39.695Z,3.80
2023-05-24T21:03:09.562Z,3.90
2023-05-24T21:05:40.398Z,3.60
2023-05-24T21:08:09.207Z,3.72
2023-05-24T21:10:38.175Z,4.25
2023-05-24T21:13:06.177Z,3.70
2023-05-24T21:15:34.450Z,3.88
2023-05-24T21:18:02.375Z,3.60
2023-05-24T21:20:30.264Z,3.63
2023-05-24T21:22:59.482Z,3.50
2023-05-24T21:25:27.660Z,3.40
2023-05-24T21:27:55.428Z,3.40
2023-05-24T21:30:23.519Z,3.00
2023-05-24T21:32:51.262Z,2.80
2023-05-24T21:35:19.048Z,3.25
2023-05-24T21:37:46.833Z,3.28
2023-05-24T21:40:16.062Z,3.47
2023-05-24T21:42:44.521Z,3.25
2023-05-24T21:45:12.996Z,3.40
2023-05-24T21:47:40.835Z,3.38
2023-05-24T21:50:09.497Z,2.97
2023-05-24T21:52:37.224Z,3.20
2023-05-24T21:55:05.955Z,3.13
2023-05-24T21:57:35.086Z,3.30
2023-05-24T22:00:04.005Z,3.50
2023-05-24T22:02:32.081Z,3.15
2023-05-24T22:04:59.933Z,3.00
2023-05-24T22:07:27.704Z,2.95
2023-05-24T22:09:56.218Z,3.40
2023-05-24T22:12:23.976Z,3.20
2023-05-24T22:14:53.102Z,3.38
2023-05-24T22:17:21.868Z,3.38
2023-05-24T22:19:49.881Z,3.30
2023-05-24T22:22:19.524Z,3.45
2023-05-24T22:24:48.146Z,3.53
2023-05-24T22:27:17.147Z,3.30
2023-05-24T22:29:44.965Z,3.47
2023-05-24T22:32:14.509Z,3.63
2023-05-24T22:34:42.685Z,3.67
2023-05-24T22:37:10.792Z,3.60
2023-05-24T22:39:39.009Z,3.80
2023-05-24T22:42:06.855Z,3.65
2023-05-24T22:44:34.730Z,3.47
2023-05-24T22:47:03.312Z,3.90
2023-05-24T22:49:33.958Z,3.55
2023-05-24T22:52:02.025Z,3.70
2023-05-24T22:54:29.863Z,3.83
2023-05-24T22:56:57.751Z,3.50
2023-05-24T22:59:25.733Z,3.30
2023-05-24T23:01:53.978Z,3.50
2023-05-24T23:04:22.030Z,3.85
2023-05-24T23:06:53.568Z,3.70
2023-05-24T23:09:34.372Z,3.75
2023-05-24T23:12:02.416Z,3.50
2023-05-24T23:14:31.468Z,3.85
2023-05-24T23:17:02.513Z,3.72
2023-05-24T23:19:31.104Z,3.58
2023-05-24T23:22:00.491Z,3.70
2023-05-24T23:24:28.390Z,3.72
2023-05-24T23:26:57.021Z,4.07
2023-05-24T23:29:25.018Z,3.55
2023-05-24T23:31:52.861Z,3.88
2023-05-24T23:34:20.899Z,3.78
2023-05-24T23:36:48.597Z,3.97
2023-05-24T23:39:17.993Z,4.10
2023-05-24T23:41:46.065Z,4.20
2023-05-24T23:44:13.859Z,4.07
2023-05-24T23:46:42.396Z,3.83
2023-05-24T23:49:10.194Z,3.80
2023-05-24T23:51:37.923Z,3.75
2023-05-24T23:54:05.982Z,3.85
2023-05-24T23:56:35.139Z,4.07
2023-05-24T23:59:03.007Z,3.55
